sensor_id;sensor_type;location;lat;lon;timestamp;P1;durP1;ratioP1;P2;durP2;ratioP2
26920;SDS011;14483;47.844;9.660;2022-11-20T00:01:10;2.97;;;1.23;;
26920;SDS011;14483;47.844;9.660;2022-11-20T00:03:39;2.95;;;1.48;;
26920;SDS011;14483;47.844;9.660;2022-11-20T00:06:06;3.53;;;1.33;;
26920;SDS011;14483;47.844;9.660;2022-11-20T00:08:32;2.63;;;1.20;;
26920;SDS011;14483;47.844;9.660;2022-11-20T00:11:01;3.05;;;1.73;;
26920;SDS011;14483;47.844;9.660;2022-11-20T00:13:28;2.67;;;1.40;;
26920;SDS011;14483;47.844;9.660;2022-11-20T00:15:56;3.25;;;1.52;;
26920;SDS011;14483;47.844;9.660;2022-11-20T00:18:23;4.35;;;1.65;;
26920;SDS011;14483;47.844;9.660;2022-11-20T00:20:50;5.60;;;2.25;;
26920;SDS011;14483;47.844;9.660;2022-11-20T00:23:17;7.18;;;2.05;;
26920;SDS011;14483;47.844;9.660;2022-11-20T00:25:43;6.18;;;2.50;;
26920;SDS011;14483;47.844;9.660;2022-11-20T00:28:09;4.78;;;2.60;;
26920;SDS011;14483;47.844;9.660;2022-11-20T00:30:36;5.32;;;2.38;;
26920;SDS011;14483;47.844;9.660;2022-11-20T00:33:02;6.20;;;2.10;;
26920;SDS011;14483;47.844;9.660;2022-11-20T00:35:28;5.22;;;3.10;;
26920;SDS011;14483;47.844;9.660;2022-11-20T00:37:57;6.38;;;2.78;;
26920;SDS011;14483;47.844;9.660;2022-11-20T00:40:23;6.90;;;3.15;;
26920;SDS011;14483;47.844;9.660;2022-11-20T00:42:49;6.70;;;2.92;;
26920;SDS011;14483;47.844;9.660;2022-11-20T00:45:16;6.93;;;2.95;;
26920;SDS011;14483;47.844;9.660;2022-11-20T00:47:42;5.07;;;2.72;;
26920;SDS011;14483;47.844;9.660;2022-11-20T00:50:08;4.72;;;2.63;;
26920;SDS011;14483;47.844;9.660;2022-11-20T00:52:35;4.47;;;2.35;;
26920;SDS011;14483;47.844;9.660;2022-11-20T00:55:02;5.53;;;2.65;;
26920;SDS011;14483;47.844;9.660;2022-11-20T00:57:29;6.32;;;2.38;;
26920;SDS011;14483;47.844;9.660;2022-11-20T00:59:55;3.53;;;2.13;;
26920;SDS011;14483;47.844;9.660;2022-11-20T01:02:22;4.90;;;2.78;;
26920;SDS011;14483;47.844;9.660;2022-11-20T01:04:48;4.00;;;2.20;;
26920;SDS011;14483;47.844;9.660;2022-11-20T01:07:14;4.82;;;2.50;;
26920;SDS011;14483;47.844;9.660;2022-11-20T01:09:41;4.32;;;2.25;;
26920;SDS011;14483;47.844;9.660;2022-11-20T01:12:08;4.28;;;2.22;;
26920;SDS011;14483;47.844;9.660;2022-11-20T01:14:35;4.32;;;2.38;;
26920;SDS011;14483;47.844;9.660;2022-11-20T01:17:01;4.47;;;2.33;;
26920;SDS011;14483;47.844;9.660;2022-11-20T01:19:27;5.75;;;2.30;;
26920;SDS011;14483;47.844;9.660;2022-11-20T01:21:54;4.45;;;2.22;;
26920;SDS011;14483;47.844;9.660;2022-11-20T01:24:20;4.10;;;2.15;;
26920;SDS011;14483;47.844;9.660;2022-11-20T01:26:47;5.20;;;2.50;;
26920;SDS011;14483;47.844;9.660;2022-11-20T01:29:16;4.35;;;2.17;;
26920;SDS011;14483;47.844;9.660;2022-11-20T01:31:43;3.88;;;1.98;;
26920;SDS011;14483;47.844;9.660;2022-11-20T01:34:11;7.05;;;2.30;;
26920;SDS011;14483;47.844;9.660;2022-11-20T01:36:38;4.28;;;2.20;;
26920;SDS011;14483;47.844;9.660;2022-11-20T01:39:05;5.50;;;1.98;;
26920;SDS011;14483;47.844;9.660;2022-11-20T01:41:32;4.57;;;2.40;;
26920;SDS011;14483;47.844;9.660;2022-11-20T01:47:05;6.00;;;2.45;;
26920;SDS011;14483;47.844;9.660;2022-11-20T01:49:33;5.68;;;2.50;;
26920;SDS011;14483;47.844;9.660;2022-11-20T01:52:01;3.80;;;2.25;;
26920;SDS011;14483;47.844;9.660;2022-11-20T01:54:30;5.47;;;2.55;;
26920;SDS011;14483;47.844;9.660;2022-11-20T01:56:58;4.97;;;2.30;;
26920;SDS011;14483;47.844;9.660;2022-11-20T01:59:25;5.82;;;2.30;;
26920;SDS011;14483;47.844;9.660;2022-11-20T02:01:52;4.13;;;2.33;;
26920;SDS011;14483;47.844;9.660;2022-11-20T02:04:20;7.32;;;2.05;;
26920;SDS011;14483;47.844;9.660;2022-11-20T02:06:48;4.05;;;1.92;;
26920;SDS011;14483;47.844;9.660;2022-11-20T02:09:15;4.97;;;2.38;;
26920;SDS011;14483;47.844;9.660;2022-11-20T02:11:42;4.53;;;2.33;;
26920;SDS011;14483;47.844;9.660;2022-11-20T02:14:08;4.18;;;2.78;;
26920;SDS011;14483;47.844;9.660;2022-11-20T02:16:35;6.38;;;2.05;;
26920;SDS011;14483;47.844;9.660;2022-11-20T02:19:03;3.58;;;2.15;;
26920;SDS011;14483;47.844;9.660;2022-11-20T02:21:34;4.53;;;2.42;;
26920;SDS011;14483;47.844;9.660;2022-11-20T02:24:05;4.55;;;2.08;;
26920;SDS011;14483;47.844;9.660;2022-11-20T02:26:33;3.85;;;2.10;;
26920;SDS011;14483;47.844;9.660;2022-11-20T02:29:01;5.15;;;2.40;;
26920;SDS011;14483;47.844;9.660;2022-11-20T02:31:28;4.65;;;2.53;;
26920;SDS011;14483;47.844;9.660;2022-11-20T02:33:55;3.40;;;2.15;;
26920;SDS011;14483;47.844;9.660;2022-11-20T02:36:21;5.00;;;2.58;;
26920;SDS011;14483;47.844;9.660;2022-11-20T02:38:47;4.32;;;2.38;;
26920;SDS011;14483;47.844;9.660;2022-11-20T02:41:15;4.88;;;2.50;;
26920;SDS011;14483;47.844;9.660;2022-11-20T02:43:42;4.97;;;2.53;;
26920;SDS011;14483;47.844;9.660;2022-11-20T02:46:08;4.47;;;2.17;;
26920;SDS011;14483;47.844;9.660;2022-11-20T02:48:34;6.45;;;3.03;;
26920;SDS011;14483;47.844;9.660;2022-11-20T02:51:01;6.47;;;2.78;;
26920;SDS011;14483;47.844;9.660;2022-11-20T02:53:27;5.20;;;2.83;;
26920;SDS011;14483;47.844;9.660;2022-11-20T02:55:54;5.55;;;2.90;;
26920;SDS011;14483;47.844;9.660;2022-11-20T02:58:21;5.80;;;2.90;;
26920;SDS011;14483;47.844;9.660;2022-11-20T03:00:48;4.80;;;2.78;;
26920;SDS011;14483;47.844;9.660;2022-11-20T03:03:14;5.80;;;3.15;;
26920;SDS011;14483;47.844;9.660;2022-11-20T03:05:40;5.00;;;2.97;;
26920;SDS011;14483;47.844;9.660;2022-11-20T03:08:07;7.70;;;2.67;;
26920;SDS011;14483;47.844;9.660;2022-11-20T03:10:33;5.22;;;2.80;;
26920;SDS011;14483;47.844;9.660;2022-11-20T03:12:59;5.00;;;2.63;;
26920;SDS011;14483;47.844;9.660;2022-11-20T03:15:27;4.60;;;2.85;;
26920;SDS011;14483;47.844;9.660;2022-11-20T03:17:54;4.45;;;2.67;;
26920;SDS011;14483;47.844;9.660;2022-11-20T03:20:20;8.23;;;2.95;;
26920;SDS011;14483;47.844;9.660;2022-11-20T03:22:47;7.25;;;3.03;;
26920;SDS011;14483;47.844;9.660;2022-11-20T03:25:13;6.00;;;3.03;;
26920;SDS011;14483;47.844;9.660;2022-11-20T03:27:39;6.60;;;3.15;;
26920;SDS011;14483;47.844;9.660;2022-11-20T03:30:06;8.35;;;2.55;;
26920;SDS011;14483;47.844;9.660;2022-11-20T03:32:34;5.90;;;2.70;;
26920;SDS011;14483;47.844;9.660;2022-11-20T03:35:00;9.02;;;2.85;;
26920;SDS011;14483;47.844;9.660;2022-11-20T03:37:27;6.85;;;3.08;;
26920;SDS011;14483;47.844;9.660;2022-11-20T03:39:53;5.45;;;2.80;;
26920;SDS011;14483;47.844;9.660;2022-11-20T03:42:19;4.32;;;2.53;;
26920;SDS011;14483;47.844;9.660;2022-11-20T03:45:04;5.82;;;2.78;;
26920;SDS011;14483;47.844;9.660;2022-11-20T03:47:30;5.47;;;2.95;;
26920;SDS011;14483;47.844;9.660;2022-11-20T03:49:58;4.47;;;2.50;;
26920;SDS011;14483;47.844;9.660;2022-11-20T03:52:24;7.38;;;2.53;;
26920;SDS011;14483;47.844;9.660;2022-11-20T03:54:50;4.30;;;2.40;;
26920;SDS011;14483;47.844;9.660;2022-11-20T03:57:17;6.43;;;2.45;;
26920;SDS011;14483;47.844;9.660;2022-11-20T03:59:43;5.78;;;2.60;;
26920;SDS011;14483;47.844;9.660;2022-11-20T04:02:09;4.35;;;2.22;;
26920;SDS011;14483;47.844;9.660;2022-11-20T04:04:36;4.07;;;2.78;;
26920;SDS011;14483;47.844;9.660;2022-11-20T04:07:04;4.80;;;2.50;;
26920;SDS011;14483;47.844;9.660;2022-11-20T04:09:30;3.67;;;2.22;;
26920;SDS011;14483;47.844;9.660;2022-11-20T04:11:56;5.18;;;2.30;;
26920;SDS011;14483;47.844;9.660;2022-11-20T04:14:23;5.50;;;2.40;;
26920;SDS011;14483;47.844;9.660;2022-11-20T04:16:49;5.90;;;2.50;;
26920;SDS011;14483;47.844;9.660;2022-11-20T04:19:15;4.55;;;2.30;;
26920;SDS011;14483;47.844;9.660;2022-11-20T04:21:42;3.10;;;2.05;;
26920;SDS011;14483;47.844;9.660;2022-11-20T04:24:10;5.15;;;2.50;;
26920;SDS011;14483;47.844;9.660;2022-11-20T04:26:37;6.93;;;2.40;;
26920;SDS011;14483;47.844;9.660;2022-11-20T04:29:03;3.97;;;2.58;;
26920;SDS011;14483;47.844;9.660;2022-11-20T04:31:31;4.30;;;2.30;;
26920;SDS011;14483;47.844;9.660;2022-11-20T04:33:58;3.05;;;1.60;;
26920;SDS011;14483;47.844;9.660;2022-11-20T04:36:25;4.95;;;2.20;;
26920;SDS011;14483;47.844;9.660;2022-11-20T04:38:52;6.13;;;2.17;;
26920;SDS011;14483;47.844;9.660;2022-11-20T04:41:21;6.15;;;2.08;;
26920;SDS011;14483;47.844;9.660;2022-11-20T04:43:48;5.13;;;2.10;;
26920;SDS011;14483;47.844;9.660;2022-11-20T04:46:14;4.75;;;2.60;;
26920;SDS011;14483;47.844;9.660;2022-11-20T04:48:41;5.10;;;2.45;;
26920;SDS011;14483;47.844;9.660;2022-11-20T04:51:07;4.40;;;2.42;;
26920;SDS011;14483;47.844;9.660;2022-11-20T04:53:33;5.43;;;2.13;;
26920;SDS011;14483;47.844;9.660;2022-11-20T04:56:00;5.82;;;2.80;;
26920;SDS011;14483;47.844;9.660;2022-11-20T04:58:28;4.28;;;2.22;;
26920;SDS011;14483;47.844;9.660;2022-11-20T05:01:00;5.03;;;2.55;;
26920;SDS011;14483;47.844;9.660;2022-11-20T05:03:26;3.38;;;2.08;;
26920;SDS011;14483;47.844;9.660;2022-11-20T05:05:52;7.63;;;2.40;;
26920;SDS011;14483;47.844;9.660;2022-11-20T05:08:19;3.58;;;2.45;;
26920;SDS011;14483;47.844;9.660;2022-11-20T05:10:45;6.20;;;2.00;;
26920;SDS011;14483;47.844;9.660;2022-11-20T05:13:11;7.25;;;3.47;;
26920;SDS011;14483;47.844;9.660;2022-11-20T05:15:39;4.28;;;2.38;;
26920;SDS011;14483;47.844;9.660;2022-11-20T05:18:05;3.97;;;2.25;;
26920;SDS011;14483;47.844;9.660;2022-11-20T05:20:32;4.50;;;2.10;;
26920;SDS011;14483;47.844;9.660;2022-11-20T05:22:58;7.30;;;2.03;;
26920;SDS011;14483;47.844;9.660;2022-11-20T05:25:25;3.33;;;2.05;;
26920;SDS011;14483;47.844;9.660;2022-11-20T05:27:51;3.75;;;2.25;;
26920;SDS011;14483;47.844;9.660;2022-11-20T05:30:17;4.60;;;2.13;;
26920;SDS011;14483;47.844;9.660;2022-11-20T05:32:45;5.07;;;2.10;;
26920;SDS011;14483;47.844;9.660;2022-11-20T05:35:11;3.70;;;2.38;;
26920;SDS011;14483;47.844;9.660;2022-11-20T05:37:38;7.75;;;2.53;;
26920;SDS011;14483;47.844;9.660;2022-11-20T05:40:05;4.18;;;2.13;;
26920;SDS011;14483;47.844;9.660;2022-11-20T05:42:31;4.10;;;2.00;;
26920;SDS011;14483;47.844;9.660;2022-11-20T05:44:57;4.40;;;2.67;;
26920;SDS011;14483;47.844;9.660;2022-11-20T05:47:24;4.25;;;2.60;;
26920;SDS011;14483;47.844;9.660;2022-11-20T05:49:52;4.07;;;2.38;;
26920;SDS011;14483;47.844;9.660;2022-11-20T05:52:18;4.63;;;2.10;;
26920;SDS011;14483;47.844;9.660;2022-11-20T05:54:44;4.85;;;2.65;;
26920;SDS011;14483;47.844;9.660;2022-11-20T05:57:11;4.75;;;2.20;;
26920;SDS011;14483;47.844;9.660;2022-11-20T05:59:37;4.30;;;2.78;;
26920;SDS011;14483;47.844;9.660;2022-11-20T06:02:03;5.05;;;2.25;;
26920;SDS011;14483;47.844;9.660;2022-11-20T06:04:30;4.25;;;2.00;;
26920;SDS011;14483;47.844;9.660;2022-11-20T06:06:57;5.18;;;2.15;;
26920;SDS011;14483;47.844;9.660;2022-11-20T06:09:24;5.20;;;2.13;;
26920;SDS011;14483;47.844;9.660;2022-11-20T06:11:50;4.45;;;2.00;;
26920;SDS011;14483;47.844;9.660;2022-11-20T06:14:16;3.63;;;1.90;;
26920;SDS011;14483;47.844;9.660;2022-11-20T06:16:43;7.18;;;2.15;;
26920;SDS011;14483;47.844;9.660;2022-11-20T06:19:09;10.38;;;2.03;;
26920;SDS011;14483;47.844;9.660;2022-11-20T06:21:35;3.58;;;1.80;;
26920;SDS011;14483;47.844;9.660;2022-11-20T06:24:03;4.50;;;1.92;;
26920;SDS011;14483;47.844;9.660;2022-11-20T06:26:30;4.65;;;1.92;;
26920;SDS011;14483;47.844;9.660;2022-11-20T06:28:56;3.75;;;1.75;;
26920;SDS011;14483;47.844;9.660;2022-11-20T06:31:23;3.05;;;1.55;;
26920;SDS011;14483;47.844;9.660;2022-11-20T06:33:50;6.60;;;2.38;;
26920;SDS011;14483;47.844;9.660;2022-11-20T06:36:18;4.20;;;1.85;;
26920;SDS011;14483;47.844;9.660;2022-11-20T06:38:44;5.25;;;2.17;;
26920;SDS011;14483;47.844;9.660;2022-11-20T06:41:13;5.22;;;2.20;;
26920;SDS011;14483;47.844;9.660;2022-11-20T06:43:39;5.70;;;2.13;;
26920;SDS011;14483;47.844;9.660;2022-11-20T06:46:06;4.43;;;1.80;;
26920;SDS011;14483;47.844;9.660;2022-11-20T06:48:32;3.78;;;2.00;;
26920;SDS011;14483;47.844;9.660;2022-11-20T06:50:59;4.13;;;2.08;;
26920;SDS011;14483;47.844;9.660;2022-11-20T06:53:25;3.17;;;1.60;;
26920;SDS011;14483;47.844;9.660;2022-11-20T06:55:52;3.70;;;1.70;;
26920;SDS011;14483;47.844;9.660;2022-11-20T06:58:19;3.08;;;1.52;;
26920;SDS011;14483;47.844;9.660;2022-11-20T07:00:46;1.90;;;1.33;;
26920;SDS011;14483;47.844;9.660;2022-11-20T07:03:12;5.05;;;2.08;;
26920;SDS011;14483;47.844;9.660;2022-11-20T07:05:39;7.20;;;2.03;;
26920;SDS011;14483;47.844;9.660;2022-11-20T07:08:06;4.00;;;2.08;;
26920;SDS011;14483;47.844;9.660;2022-11-20T07:10:32;4.63;;;1.83;;
26920;SDS011;14483;47.844;9.660;2022-11-20T07:12:59;3.20;;;1.50;;
26920;SDS011;14483;47.844;9.660;2022-11-20T07:15:27;4.18;;;1.40;;
26920;SDS011;14483;47.844;9.660;2022-11-20T07:17:53;2.35;;;1.27;;
26920;SDS011;14483;47.844;9.660;2022-11-20T07:20:19;3.83;;;1.70;;
26920;SDS011;14483;47.844;9.660;2022-11-20T07:22:46;3.25;;;1.25;;
26920;SDS011;14483;47.844;9.660;2022-11-20T07:25:12;3.50;;;1.40;;
26920;SDS011;14483;47.844;9.660;2022-11-20T07:27:39;2.58;;;1.00;;
26920;SDS011;14483;47.844;9.660;2022-11-20T07:30:05;3.58;;;1.73;;
26920;SDS011;14483;47.844;9.660;2022-11-20T07:32:33;1.90;;;1.33;;
26920;SDS011;14483;47.844;9.660;2022-11-20T07:34:59;7.00;;;1.80;;
26920;SDS011;14483;47.844;9.660;2022-11-20T07:37:26;3.40;;;1.95;;
26920;SDS011;14483;47.844;9.660;2022-11-20T07:39:52;3.45;;;1.52;;
26920;SDS011;14483;47.844;9.660;2022-11-20T07:42:19;3.38;;;1.35;;
26920;SDS011;14483;47.844;9.660;2022-11-20T07:44:45;2.38;;;1.30;;
26920;SDS011;14483;47.844;9.660;2022-11-20T07:47:11;3.63;;;1.42;;
26920;SDS011;14483;47.844;9.660;2022-11-20T07:49:39;2.95;;;1.25;;
26920;SDS011;14483;47.844;9.660;2022-11-20T07:52:05;2.97;;;1.50;;
26920;SDS011;14483;47.844;9.660;2022-11-20T07:54:32;3.25;;;1.33;;
26920;SDS011;14483;47.844;9.660;2022-11-20T07:56:58;3.28;;;1.20;;
26920;SDS011;14483;47.844;9.660;2022-11-20T07:59:24;3.17;;;1.17;;
26920;SDS011;14483;47.844;9.660;2022-11-20T08:01:51;3.35;;;1.25;;
26920;SDS011;14483;47.844;9.660;2022-11-20T08:04:17;2.92;;;1.10;;
26920;SDS011;14483;47.844;9.660;2022-11-20T08:06:45;1.95;;;1.02;;
26920;SDS011;14483;47.844;9.660;2022-11-20T08:09:11;2.55;;;1.23;;
26920;SDS011;14483;47.844;9.660;2022-11-20T08:11:37;2.60;;;1.00;;
26920;SDS011;14483;47.844;9.660;2022-11-20T08:14:21;2.75;;;1.13;;
26920;SDS011;14483;47.844;9.660;2022-11-20T08:16:48;2.90;;;1.45;;
26920;SDS011;14483;47.844;9.660;2022-11-20T08:19:15;2.92;;;1.50;;
26920;SDS011;14483;47.844;9.660;2022-11-20T08:21:42;3.95;;;1.30;;
26920;SDS011;14483;47.844;9.660;2022-11-20T08:24:10;1.55;;;0.85;;
26920;SDS011;14483;47.844;9.660;2022-11-20T08:26:37;2.55;;;1.05;;
26920;SDS011;14483;47.844;9.660;2022-11-20T08:29:04;2.50;;;1.30;;
26920;SDS011;14483;47.844;9.660;2022-11-20T08:31:31;2.30;;;1.08;;
26920;SDS011;14483;47.844;9.660;2022-11-20T08:33:57;3.50;;;1.30;;
26920;SDS011;14483;47.844;9.660;2022-11-20T08:36:24;5.00;;;1.77;;
26920;SDS011;14483;47.844;9.660;2022-11-20T08:38:51;1.70;;;1.10;;
26920;SDS011;14483;47.844;9.660;2022-11-20T08:41:19;4.70;;;1.20;;
26920;SDS011;14483;47.844;9.660;2022-11-20T08:43:54;2.75;;;1.15;;
26920;SDS011;14483;47.844;9.660;2022-11-20T08:46:21;2.72;;;1.23;;
26920;SDS011;14483;47.844;9.660;2022-11-20T08:48:47;3.13;;;1.35;;
26920;SDS011;14483;47.844;9.660;2022-11-20T08:51:14;2.33;;;1.20;;
26920;SDS011;14483;47.844;9.660;2022-11-20T08:53:41;2.45;;;1.17;;
26920;SDS011;14483;47.844;9.660;2022-11-20T08:56:07;2.90;;;1.15;;
26920;SDS011;14483;47.844;9.660;2022-11-20T08:58:35;2.42;;;1.00;;
26920;SDS011;14483;47.844;9.660;2022-11-20T09:01:02;1.80;;;1.00;;
26920;SDS011;14483;47.844;9.660;2022-11-20T09:03:28;2.03;;;0.90;;
26920;SDS011;14483;47.844;9.660;2022-11-20T09:05:56;4.97;;;1.30;;
26920;SDS011;14483;47.844;9.660;2022-11-20T09:08:23;2.58;;;1.20;;
26920;SDS011;14483;47.844;9.660;2022-11-20T09:10:50;3.30;;;1.20;;
26920;SDS011;14483;47.844;9.660;2022-11-20T09:13:17;3.22;;;1.25;;
26920;SDS011;14483;47.844;9.660;2022-11-20T09:15:45;3.70;;;0.88;;
26920;SDS011;14483;47.844;9.660;2022-11-20T09:18:11;3.13;;;1.27;;
26920;SDS011;14483;47.844;9.660;2022-11-20T09:20:37;1.90;;;1.10;;
26920;SDS011;14483;47.844;9.660;2022-11-20T09:23:04;3.10;;;1.08;;
26920;SDS011;14483;47.844;9.660;2022-11-20T09:25:30;2.38;;;1.13;;
26920;SDS011;14483;47.844;9.660;2022-11-20T09:27:57;1.55;;;0.93;;
26920;SDS011;14483;47.844;9.660;2022-11-20T09:30:23;1.98;;;0.85;;
26920;SDS011;14483;47.844;9.660;2022-11-20T09:32:51;1.98;;;0.90;;
26920;SDS011;14483;47.844;9.660;2022-11-20T09:35:17;3.85;;;1.10;;
26920;SDS011;14483;47.844;9.660;2022-11-20T09:37:44;3.47;;;1.20;;
26920;SDS011;14483;47.844;9.660;2022-11-20T09:40:16;2.33;;;1.30;;
26920;SDS011;14483;47.844;9.660;2022-11-20T09:42:44;1.60;;;1.00;;
26920;SDS011;14483;47.844;9.660;2022-11-20T09:45:16;4.38;;;2.17;;
26920;SDS011;14483;47.844;9.660;2022-11-20T09:47:48;1.83;;;0.90;;
26920;SDS011;14483;47.844;9.660;2022-11-20T09:50:23;2.17;;;1.00;;
26920;SDS011;14483;47.844;9.660;2022-11-20T09:52:55;2.83;;;1.08;;
26920;SDS011;14483;47.844;9.660;2022-11-20T09:55:23;2.47;;;1.30;;
26920;SDS011;14483;47.844;9.660;2022-11-20T09:57:51;3.08;;;1.75;;
26920;SDS011;14483;47.844;9.660;2022-11-20T10:00:18;3.28;;;1.00;;
26920;SDS011;14483;47.844;9.660;2022-11-20T10:02:47;6.60;;;1.75;;
26920;SDS011;14483;47.844;9.660;2022-11-20T10:05:15;4.30;;;1.10;;
26920;SDS011;14483;47.844;9.660;2022-11-20T10:07:47;1.65;;;0.80;;
26920;SDS011;14483;47.844;9.660;2022-11-20T10:10:15;5.38;;;2.13;;
26920;SDS011;14483;47.844;9.660;2022-11-20T10:12:45;4.03;;;1.63;;
26920;SDS011;14483;47.844;9.660;2022-11-20T10:15:17;5.55;;;2.03;;
26920;SDS011;14483;47.844;9.660;2022-11-20T10:17:52;6.70;;;1.77;;
26920;SDS011;14483;47.844;9.660;2022-11-20T10:20:23;2.92;;;1.10;;
26920;SDS011;14483;47.844;9.660;2022-11-20T10:22:59;1.92;;;0.90;;
26920;SDS011;14483;47.844;9.660;2022-11-20T10:25:30;2.22;;;0.75;;
26920;SDS011;14483;47.844;9.660;2022-11-20T10:30:48;3.03;;;1.30;;
26920;SDS011;14483;47.844;9.660;2022-11-20T10:33:18;3.00;;;0.90;;
26920;SDS011;14483;47.844;9.660;2022-11-20T10:35:48;2.28;;;0.73;;
26920;SDS011;14483;47.844;9.660;2022-11-20T10:38:18;2.15;;;0.95;;
26920;SDS011;14483;47.844;9.660;2022-11-20T10:40:46;1.92;;;0.80;;
26920;SDS011;14483;47.844;9.660;2022-11-20T10:43:15;1.80;;;0.75;;
26920;SDS011;14483;47.844;9.660;2022-11-20T10:45:44;0.93;;;0.57;;
26920;SDS011;14483;47.844;9.660;2022-11-20T10:48:14;2.63;;;0.70;;
26920;SDS011;14483;47.844;9.660;2022-11-20T10:50:44;2.38;;;0.80;;
26920;SDS011;14483;47.844;9.660;2022-11-20T10:53:16;3.45;;;0.63;;
26920;SDS011;14483;47.844;9.660;2022-11-20T10:55:46;1.50;;;0.52;;
26920;SDS011;14483;47.844;9.660;2022-11-20T10:58:23;1.25;;;0.60;;
26920;SDS011;14483;47.844;9.660;2022-11-20T11:01:02;6.70;;;0.70;;
26920;SDS011;14483;47.844;9.660;2022-11-20T11:03:29;1.10;;;0.57;;
26920;SDS011;14483;47.844;9.660;2022-11-20T11:05:58;1.25;;;0.70;;
26920;SDS011;14483;47.844;9.660;2022-11-20T11:08:27;1.63;;;0.80;;
26920;SDS011;14483;47.844;9.660;2022-11-20T11:10:56;2.33;;;0.80;;
26920;SDS011;14483;47.844;9.660;2022-11-20T11:13:24;2.92;;;1.25;;
26920;SDS011;14483;47.844;9.660;2022-11-20T11:15:51;2.10;;;0.98;;
26920;SDS011;14483;47.844;9.660;2022-11-20T11:18:23;3.42;;;0.82;;
26920;SDS011;14483;47.844;9.660;2022-11-20T11:23:22;1.00;;;0.60;;
26920;SDS011;14483;47.844;9.660;2022-11-20T11:25:57;1.55;;;0.47;;
26920;SDS011;14483;47.844;9.660;2022-11-20T11:28:24;1.63;;;0.47;;
26920;SDS011;14483;47.844;9.660;2022-11-20T11:30:52;2.35;;;0.57;;
26920;SDS011;14483;47.844;9.660;2022-11-20T11:33:23;0.93;;;0.50;;
26920;SDS011;14483;47.844;9.660;2022-11-20T11:35:49;1.75;;;0.60;;
26920;SDS011;14483;47.844;9.660;2022-11-20T11:38:19;2.88;;;0.65;;
26920;SDS011;14483;47.844;9.660;2022-11-20T11:40:47;2.78;;;1.52;;
26920;SDS011;14483;47.844;9.660;2022-11-20T11:43:19;5.45;;;0.50;;
26920;SDS011;14483;47.844;9.660;2022-11-20T11:46:04;0.85;;;0.50;;
26920;SDS011;14483;47.844;9.660;2022-11-20T11:48:32;1.52;;;0.45;;
26920;SDS011;14483;47.844;9.660;2022-11-20T11:50:58;0.70;;;0.40;;
26920;SDS011;14483;47.844;9.660;2022-11-20T11:53:25;1.38;;;0.52;;
26920;SDS011;14483;47.844;9.660;2022-11-20T11:55:55;1.15;;;0.40;;
26920;SDS011;14483;47.844;9.660;2022-11-20T11:58:34;1.25;;;0.40;;
26920;SDS011;14483;47.844;9.660;2022-11-20T12:01:07;1.75;;;0.60;;
26920;SDS011;14483;47.844;9.660;2022-11-20T12:03:38;1.25;;;0.40;;
26920;SDS011;14483;47.844;9.660;2022-11-20T12:06:08;2.67;;;0.50;;
26920;SDS011;14483;47.844;9.660;2022-11-20T12:08:38;0.75;;;0.32;;
26920;SDS011;14483;47.844;9.660;2022-11-20T12:11:11;2.53;;;0.40;;
26920;SDS011;14483;47.844;9.660;2022-11-20T12:13:44;0.98;;;0.40;;
26920;SDS011;14483;47.844;9.660;2022-11-20T12:16:13;0.55;;;0.32;;
26920;SDS011;14483;47.844;9.660;2022-11-20T12:18:40;1.38;;;0.40;;
26920;SDS011;14483;47.844;9.660;2022-11-20T12:21:18;2.25;;;0.50;;
26920;SDS011;14483;47.844;9.660;2022-11-20T12:23:49;2.22;;;0.60;;
26920;SDS011;14483;47.844;9.660;2022-11-20T12:26:22;1.10;;;0.20;;
26920;SDS011;14483;47.844;9.660;2022-11-20T12:28:57;1.08;;;0.50;;
26920;SDS011;14483;47.844;9.660;2022-11-20T12:31:30;2.88;;;0.50;;
26920;SDS011;14483;47.844;9.660;2022-11-20T12:36:48;1.77;;;0.50;;
26920;SDS011;14483;47.844;9.660;2022-11-20T12:39:21;0.95;;;0.43;;
26920;SDS011;14483;47.844;9.660;2022-11-20T12:42:05;1.17;;;0.40;;
26920;SDS011;14483;47.844;9.660;2022-11-20T12:47:45;2.72;;;0.50;;
26920;SDS011;14483;47.844;9.660;2022-11-20T12:50:15;1.10;;;0.52;;
26920;SDS011;14483;47.844;9.660;2022-11-20T12:52:45;1.45;;;0.55;;
26920;SDS011;14483;47.844;9.660;2022-11-20T12:55:16;0.88;;;0.50;;
26920;SDS011;14483;47.844;9.660;2022-11-20T12:57:44;1.75;;;0.52;;
26920;SDS011;14483;47.844;9.660;2022-11-20T13:00:14;1.02;;;0.50;;
26920;SDS011;14483;47.844;9.660;2022-11-20T13:02:47;0.60;;;0.30;;
26920;SDS011;14483;47.844;9.660;2022-11-20T13:05:19;0.77;;;0.40;;
26920;SDS011;14483;47.844;9.660;2022-11-20T13:07:46;2.13;;;0.43;;
26920;SDS011;14483;47.844;9.660;2022-11-20T13:10:18;1.27;;;0.40;;
26920;SDS011;14483;47.844;9.660;2022-11-20T13:12:48;1.10;;;0.50;;
26920;SDS011;14483;47.844;9.660;2022-11-20T13:15:29;1.25;;;0.40;;
26920;SDS011;14483;47.844;9.660;2022-11-20T13:18:00;1.10;;;0.40;;
26920;SDS011;14483;47.844;9.660;2022-11-20T13:20:27;0.75;;;0.40;;
26920;SDS011;14483;47.844;9.660;2022-11-20T13:22:54;2.42;;;0.50;;
26920;SDS011;14483;47.844;9.660;2022-11-20T13:25:22;0.90;;;0.60;;
26920;SDS011;14483;47.844;9.660;2022-11-20T13:27:49;1.10;;;0.45;;
26920;SDS011;14483;47.844;9.660;2022-11-20T13:30:16;2.50;;;0.35;;
26920;SDS011;14483;47.844;9.660;2022-11-20T13:32:50;0.43;;;0.28;;
26920;SDS011;14483;47.844;9.660;2022-11-20T13:35:25;0.77;;;0.40;;
26920;SDS011;14483;47.844;9.660;2022-11-20T13:37:59;0.80;;;0.50;;
26920;SDS011;14483;47.844;9.660;2022-11-20T13:40:25;1.65;;;0.40;;
26920;SDS011;14483;47.844;9.660;2022-11-20T13:42:55;2.63;;;0.40;;
26920;SDS011;14483;47.844;9.660;2022-11-20T13:45:22;1.55;;;0.50;;
26920;SDS011;14483;47.844;9.660;2022-11-20T13:47:49;1.48;;;0.43;;
26920;SDS011;14483;47.844;9.660;2022-11-20T13:50:16;1.65;;;0.50;;
26920;SDS011;14483;47.844;9.660;2022-11-20T13:52:45;1.65;;;0.32;;
26920;SDS011;14483;47.844;9.660;2022-11-20T13:55:16;1.92;;;0.50;;
26920;SDS011;14483;47.844;9.660;2022-11-20T13:57:49;0.60;;;0.25;;
26920;SDS011;14483;47.844;9.660;2022-11-20T14:00:18;1.80;;;0.40;;
26920;SDS011;14483;47.844;9.660;2022-11-20T14:02:46;0.98;;;0.40;;
26920;SDS011;14483;47.844;9.660;2022-11-20T14:05:17;1.15;;;0.30;;
26920;SDS011;14483;47.844;9.660;2022-11-20T14:07:46;2.20;;;0.40;;
26920;SDS011;14483;47.844;9.660;2022-11-20T14:10:19;1.77;;;0.70;;
26920;SDS011;14483;47.844;9.660;2022-11-20T14:12:45;4.03;;;0.38;;
26920;SDS011;14483;47.844;9.660;2022-11-20T14:15:22;4.68;;;0.50;;
26920;SDS011;14483;47.844;9.660;2022-11-20T14:17:49;1.67;;;0.40;;
26920;SDS011;14483;47.844;9.660;2022-11-20T14:20:16;1.58;;;0.50;;
26920;SDS011;14483;47.844;9.660;2022-11-20T14:22:49;2.03;;;0.25;;
26920;SDS011;14483;47.844;9.660;2022-11-20T14:25:19;0.50;;;0.30;;
26920;SDS011;14483;47.844;9.660;2022-11-20T14:27:50;1.15;;;0.30;;
26920;SDS011;14483;47.844;9.660;2022-11-20T14:30:17;0.70;;;0.35;;
26920;SDS011;14483;47.844;9.660;2022-11-20T14:32:44;3.05;;;0.82;;
26920;SDS011;14483;47.844;9.660;2022-11-20T14:35:13;0.50;;;0.25;;
26920;SDS011;14483;47.844;9.660;2022-11-20T14:37:44;1.45;;;0.47;;
26920;SDS011;14483;47.844;9.660;2022-11-20T14:40:25;1.08;;;0.30;;
26920;SDS011;14483;47.844;9.660;2022-11-20T14:42:52;0.55;;;0.30;;
26920;SDS011;14483;47.844;9.660;2022-11-20T14:45:18;1.95;;;0.47;;
26920;SDS011;14483;47.844;9.660;2022-11-20T14:47:45;4.80;;;0.60;;
26920;SDS011;14483;47.844;9.660;2022-11-20T14:50:12;2.70;;;0.43;;
26920;SDS011;14483;47.844;9.660;2022-11-20T14:52:40;1.25;;;0.30;;
26920;SDS011;14483;47.844;9.660;2022-11-20T14:55:24;1.25;;;0.40;;
26920;SDS011;14483;47.844;9.660;2022-11-20T14:57:55;1.20;;;0.40;;
26920;SDS011;14483;47.844;9.660;2022-11-20T15:00:22;3.45;;;0.40;;
26920;SDS011;14483;47.844;9.660;2022-11-20T15:02:49;0.95;;;0.60;;
26920;SDS011;14483;47.844;9.660;2022-11-20T15:05:16;2.38;;;0.32;;
26920;SDS011;14483;47.844;9.660;2022-11-20T15:07:43;0.75;;;0.40;;